Colima, Mexico

4:36 PM CST on January 18, 2017 (GMT -0600)
Colima | | Change Station

Elev 2372 ft 19.27 °N, 103.58 °W | Updated 54 minutes ago

Mostly Cloudy
Mostly Cloudy
79 °F
Feels Like 79 °F
N
0
Wind Variable Wind from North

Today
High -- | Low -- °F
--% Chance of Precip.
Yesterday
High -- | Low -- °F
Precip. -- in
Pressure 30.06 in
Visibility 8.0 miles
Clouds Few 2500 ft
Mostly Cloudy 21000 ft
Dew Point 57 °F
Humidity 47%
Rainfall 0.00 in
Snow Depth Not available.
7:30 AM 6:38 PM
Waning Gibbous, 59% visible
METAR MMIA 182142Z 00000KT 8SM FEW025 BKN210 26/14 A3006 RMK 8/108 HZY
Pressure 30.06 in
Visibility 8.0 miles
Clouds Few 2500 ft
Mostly Cloudy 21000 ft
Dew Point 57 °F
Humidity 47%
Rainfall 0.00 in
Snow Depth Not available.
7:30 AM 6:38 PM
Waning Gibbous, 59% visible
METAR MMIA 182142Z 00000KT 8SM FEW025 BKN210 26/14 A3006 RMK 8/108 HZY

Get Your Daily Forecast Email!

Thanks for signing up!

Be on the lookout for a verification email in your inbox.

You'll start receiving the daily forecast at 8 AM.

×

10-Day Weather Forecast

No radar image for this location.
×

Almanac

Astronomy

Jan. 18, 2017 Rise Set
Actual Time
Civil Twilight
Nautical Twilight
Astronomical Twilight
Moon
Length of Visible Light
Length of Day
Tomorrow will be .
, % of the Moon is Illuminated

Today's Extremes

Country Highs Country Lows

Community

WunderPhotos

Upload Photos

1,962,540 photos uploaded!

WunderBlog® & News

Nearby

Air Quality

  Air Quality AQ Index Pollutant
Not available.

Snow Depth

Station Depth Elevation

Earthquake Activity

City Distance Mag. Time & Date
Minimum magnitude displayed is 2.5.

Coastal Water Temperatures

Place Temperature

Stations

Nearby Weather Stations

Station Location Temp. Windchill Dew Point Humidity Wind Precip. Elev Updated Type